Nathalie — OJLP — position and weather

sailwx.info

Track history (hours):
 
Tides and Currents Weather Stations Pressure Air Temp Water Temp Dewpoint Dewpoint Depression Visibility Wind Speed Wind Dir Waves Ship Positions

Nathalie

Last reported at 2016-May-27 04:06 UTC. Time now 2016-May-28 04:06 UTC.
Position N 55°40' E 021°09'.

Length 64 m; draft 2.1 m.

Type: Cargo ship. MMSI: 230987660.

Date/timePositionNaut miles runAvg speedWind from/ knotsBaromVisibWave heightAir tempDewpointWater temp
2016-May-27 04:06N 55°40' E 021°09'0 0.0
2016-May-27 00:14N 55°40' E 021°09'0 0.0
2016-May-26 23:21N 55°40' E 021°09'0 0.0
2016-May-26 22:17N 55°40' E 021°09'190 6.3
2016-May-25 16:13N 58°34' E 023°24'63 2.9
2016-May-24 18:24N 59°37' E 023°02'9 8.6
2016-May-24 17:24N 59°46' E 023°01'  
2016-May-21 19:33N 59°46' E 023°01'9 8.9
2016-May-21 18:33N 59°42' E 023°17'9 9.0
2016-May-21 17:33N 59°40' E 023°34'9 9.0
2016-May-21 16:33N 59°37' E 023°51'28 6.8
2016-May-21 12:31N 59°28' E 024°43'0 0.0
2016-May-21 11:13N 59°28' E 024°43'0 0.0
2016-May-21 10:25N 59°28' E 024°43'0 0.0
2016-May-21 09:18N 59°28' E 024°43'0 0.0
2016-May-21 08:18N 59°28' E 024°43'0 0.0
2016-May-21 07:18N 59°28' E 024°43'0 0.0
2016-May-21 06:30N 59°28' E 024°43'0 0.0
2016-May-21 05:30N 59°28' E 024°43'0 0.0
2016-May-21 04:30N 59°28' E 024°43'0 0.1
2016-May-21 03:26N 59°28' E 024°43'4 4.2
2016-May-21 02:33N 59°30' E 024°37'  
2016-May-17 07:32N 57°11' E 016°48'  
Track history (hours):
 
Tides and Currents Weather Stations Pressure Air Temp Water Temp Dewpoint Dewpoint Depression Visibility Wind Speed Wind Dir Waves Ship Positions

Nathalie

Last reported at 2016-May-27 04:06 UTC. Time now 2016-May-28 04:06 UTC.
Position N 55°40' E 021°09'.

Length 64 m; draft 2.1 m.

Type: Cargo ship. MMSI: 230987660.

Date/timePositionNaut miles runAvg speedWind from/ knotsBaromVisibWave heightAir tempDewpointWater temp
2016-May-27 04:06N 55°40' E 021°09'0 0.0
2016-May-27 00:14N 55°40' E 021°09'0 0.0
2016-May-26 23:21N 55°40' E 021°09'0 0.0
2016-May-26 22:17N 55°40' E 021°09'190 6.3
2016-May-25 16:13N 58°34' E 023°24'63 2.9
2016-May-24 18:24N 59°37' E 023°02'9 8.6
2016-May-24 17:24N 59°46' E 023°01'  
2016-May-21 19:33N 59°46' E 023°01'9 8.9
2016-May-21 18:33N 59°42' E 023°17'9 9.0
2016-May-21 17:33N 59°40' E 023°34'9 9.0
2016-May-21 16:33N 59°37' E 023°51'28 6.8
2016-May-21 12:31N 59°28' E 024°43'0 0.0
2016-May-21 11:13N 59°28' E 024°43'0 0.0
2016-May-21 10:25N 59°28' E 024°43'0 0.0
2016-May-21 09:18N 59°28' E 024°43'0 0.0
2016-May-21 08:18N 59°28' E 024°43'0 0.0
2016-May-21 07:18N 59°28' E 024°43'0 0.0
2016-May-21 06:30N 59°28' E 024°43'0 0.0
2016-May-21 05:30N 59°28' E 024°43'0 0.0
2016-May-21 04:30N 59°28' E 024°43'0 0.1
2016-May-21 03:26N 59°28' E 024°43'4 4.2
2016-May-21 02:33N 59°30' E 024°37'  
2016-May-17 07:32N 57°11' E 016°48'  

Dump ship's entire track history